createdAt,value
2017-10-28T00:00:06.006Z,8.20
2017-10-28T00:02:33.896Z,7.50
2017-10-28T00:05:01.420Z,2.20
2017-10-28T00:07:29.053Z,7.43
2017-10-28T00:09:57.040Z,5.03
2017-10-28T00:12:24.588Z,6.07
2017-10-28T00:14:52.117Z,4.70
2017-10-28T00:17:19.656Z,12.63
2017-10-28T00:19:47.182Z,4.80
2017-10-28T00:22:14.714Z,6.73
2017-10-28T00:24:42.291Z,12.13
2017-10-28T00:27:09.950Z,4.20
2017-10-28T00:29:37.737Z,11.07
2017-10-28T00:35:14.197Z,8.40
2017-10-28T00:37:41.881Z,9.00
2017-10-28T00:40:09.648Z,8.60
2017-10-28T00:42:37.289Z,4.77
2017-10-28T00:45:04.857Z,4.60
2017-10-28T00:47:32.424Z,9.20
2017-10-28T00:49:59.949Z,8.03
2017-10-28T00:52:27.531Z,10.73
2017-10-28T00:54:55.059Z,9.40
2017-10-28T00:57:22.634Z,14.17
2017-10-28T00:59:50.169Z,6.13
2017-10-28T01:02:17.780Z,6.77
2017-10-28T01:04:45.844Z,13.60
2017-10-28T01:07:13.373Z,7.03
2017-10-28T01:09:40.937Z,8.30
2017-10-28T01:12:08.535Z,10.07
2017-10-28T01:14:36.195Z,7.40
2017-10-28T01:17:03.721Z,16.20
2017-10-28T01:19:31.295Z,6.53
2017-10-28T01:21:58.821Z,9.30
2017-10-28T01:24:26.442Z,8.17
2017-10-28T01:26:53.986Z,14.30
2017-10-28T01:29:21.520Z,9.47
2017-10-28T01:31:49.083Z,6.97
2017-10-28T01:34:16.633Z,11.30
2017-10-28T01:36:44.167Z,9.50
2017-10-28T01:39:11.697Z,9.80
2017-10-28T01:41:39.268Z,7.77
2017-10-28T01:44:06.799Z,7.97
2017-10-28T01:46:34.361Z,5.90
2017-10-28T01:49:01.885Z,6.00
2017-10-28T01:51:32.381Z,6.17
2017-10-28T01:53:59.921Z,9.27
2017-10-28T01:56:27.450Z,6.27
2017-10-28T01:58:55.973Z,6.03
2017-10-28T02:01:23.532Z,5.90
2017-10-28T02:03:51.053Z,8.67
2017-10-28T02:06:18.652Z,5.63
2017-10-28T02:08:46.181Z,9.03
2017-10-28T02:11:13.772Z,6.53
2017-10-28T02:13:41.295Z,4.77
2017-10-28T02:16:09.057Z,10.27
2017-10-28T02:18:36.622Z,9.00
2017-10-28T02:21:04.237Z,4.60
2017-10-28T02:23:31.772Z,13.07
2017-10-28T02:25:59.299Z,7.57
2017-10-28T02:28:26.827Z,9.20
2017-10-28T02:30:54.466Z,11.00
2017-10-28T02:33:22.065Z,6.77
2017-10-28T02:35:49.683Z,14.33
2017-10-28T02:38:17.217Z,7.80
2017-10-28T02:40:44.749Z,9.53
2017-10-28T02:43:12.309Z,12.73
2017-10-28T02:45:39.835Z,8.77
2017-10-28T02:48:07.353Z,8.70
2017-10-28T02:50:35.243Z,12.40
2017-10-28T02:53:02.802Z,7.10
2017-10-28T02:55:30.324Z,7.37
2017-10-28T02:57:57.904Z,13.87
2017-10-28T03:00:25.434Z,10.57
2017-10-28T03:02:53.428Z,8.23
2017-10-28T03:05:21.288Z,7.40
2017-10-28T03:07:48.849Z,6.07
2017-10-28T03:10:17.589Z,9.70
2017-10-28T03:12:45.161Z,9.07
2017-10-28T03:15:12.697Z,13.67
2017-10-28T03:17:40.226Z,12.30
2017-10-28T03:20:07.755Z,9.03
2017-10-28T03:22:35.283Z,11.70
2017-10-28T03:25:02.830Z,10.70
2017-10-28T03:27:30.358Z,12.50
2017-10-28T03:29:57.886Z,4.97
2017-10-28T03:32:25.456Z,11.20
2017-10-28T03:34:52.988Z,9.80
2017-10-28T03:37:20.521Z,12.23
2017-10-28T03:39:48.086Z,11.00
2017-10-28T03:42:15.655Z,10.53
2017-10-28T03:44:43.177Z,11.70
2017-10-28T03:47:10.778Z,12.30
2017-10-28T03:49:39.102Z,16.90
2017-10-28T03:52:06.628Z,9.13
2017-10-28T03:54:34.292Z,12.83
2017-10-28T03:57:01.821Z,14.10
2017-10-28T03:59:29.397Z,14.10
2017-10-28T04:01:56.970Z,14.37
2017-10-28T04:04:24.515Z,9.13
2017-10-28T04:06:52.050Z,12.27
2017-10-28T04:09:19.589Z,15.00
2017-10-28T04:11:47.196Z,12.37
2017-10-28T04:14:14.721Z,19.10
2017-10-28T04:16:42.320Z,20.93
2017-10-28T04:19:09.881Z,10.87
2017-10-28T04:21:37.453Z,11.20
2017-10-28T04:24:05.513Z,8.90
2017-10-28T04:26:33.037Z,23.23
2017-10-28T04:29:00.631Z,14.77
2017-10-28T04:31:28.172Z,20.17
2017-10-28T04:33:55.700Z,12.10
2017-10-28T04:36:23.322Z,11.40
2017-10-28T04:38:50.905Z,12.10
2017-10-28T04:41:18.429Z,9.53
2017-10-28T04:43:46.286Z,14.37
2017-10-28T04:46:13.821Z,14.03
2017-10-28T04:48:41.356Z,13.77
2017-10-28T04:51:08.895Z,13.10
2017-10-28T04:53:36.429Z,14.57
2017-10-28T04:56:04.020Z,14.97
2017-10-28T04:58:31.568Z,11.60
2017-10-28T05:00:59.134Z,13.03
2017-10-28T05:03:26.677Z,11.33
2017-10-28T05:05:54.204Z,10.43
2017-10-28T05:08:21.739Z,10.03
2017-10-28T05:10:50.159Z,17.80
2017-10-28T05:13:17.746Z,8.73
2017-10-28T05:15:45.325Z,13.23
2017-10-28T05:18:12.858Z,15.00
2017-10-28T05:20:40.442Z,8.67
2017-10-28T05:23:08.056Z,14.20
2017-10-28T05:25:35.751Z,9.30
2017-10-28T05:28:03.281Z,11.40
2017-10-28T05:30:30.812Z,8.33
2017-10-28T05:32:58.688Z,10.95
2017-10-28T05:35:26.212Z,8.40
2017-10-28T05:37:53.871Z,13.60
2017-10-28T05:40:21.405Z,6.00
2017-10-28T05:42:48.937Z,15.13
2017-10-28T05:45:16.472Z,8.47
2017-10-28T05:47:44.001Z,8.30
2017-10-28T05:50:11.537Z,14.23
2017-10-28T05:52:39.062Z,5.43
2017-10-28T05:55:06.586Z,7.83
2017-10-28T05:57:34.110Z,7.33
2017-10-28T06:00:01.641Z,10.77
2017-10-28T06:02:29.166Z,3.50
2017-10-28T06:04:56.826Z,5.83
2017-10-28T06:07:24.390Z,3.50
2017-10-28T06:09:51.947Z,5.63
2017-10-28T06:12:19.476Z,3.07
2017-10-28T06:14:47.000Z,3.80
2017-10-28T06:17:14.526Z,4.90
2017-10-28T06:19:42.052Z,5.50
2017-10-28T06:22:09.845Z,5.90
2017-10-28T06:24:37.464Z,7.10
2017-10-28T06:27:04.996Z,3.50
2017-10-28T06:29:32.534Z,9.47
2017-10-28T06:32:00.061Z,10.27
2017-10-28T06:34:27.589Z,3.33
2017-10-28T06:36:55.164Z,4.47
2017-10-28T06:39:22.696Z,12.13
2017-10-28T06:41:50.226Z,4.13
2017-10-28T06:44:17.773Z,3.60
2017-10-28T06:46:45.301Z,6.23
2017-10-28T06:49:12.822Z,5.90
2017-10-28T06:51:40.351Z,7.33
2017-10-28T06:54:07.912Z,9.60
2017-10-28T06:56:35.440Z,6.20
2017-10-28T06:59:03.024Z,4.13
2017-10-28T07:01:30.617Z,6.63
2017-10-28T07:03:58.146Z,5.33
2017-10-28T07:06:32.854Z,3.30
2017-10-28T07:09:00.462Z,3.60
2017-10-28T07:11:27.995Z,5.30
2017-10-28T07:13:55.567Z,5.93
2017-10-28T07:16:23.773Z,3.97
2017-10-28T07:18:51.322Z,4.70
2017-10-28T07:21:18.853Z,5.13
2017-10-28T07:23:46.390Z,5.83
2017-10-28T07:26:13.998Z,5.00
2017-10-28T07:28:41.541Z,9.33
2017-10-28T07:31:09.123Z,4.97
2017-10-28T07:33:36.654Z,5.10
2017-10-28T07:36:04.236Z,5.33
2017-10-28T07:38:31.877Z,10.47
2017-10-28T07:40:59.410Z,10.27
2017-10-28T07:43:26.951Z,5.27
2017-10-28T07:45:54.488Z,8.53
2017-10-28T07:48:22.017Z,6.40
2017-10-28T07:50:50.513Z,10.53
2017-10-28T07:53:18.104Z,14.40
2017-10-28T07:55:45.661Z,7.20
2017-10-28T07:58:13.184Z,5.97
2017-10-28T08:00:40.712Z,4.20
2017-10-28T08:03:08.250Z,5.83
2017-10-28T08:05:35.924Z,7.20
2017-10-28T08:08:03.523Z,13.43
2017-10-28T08:10:31.053Z,3.23
2017-10-28T08:12:58.641Z,6.93
2017-10-28T08:15:26.221Z,5.60
2017-10-28T08:17:53.756Z,8.90
2017-10-28T08:20:21.288Z,8.67
2017-10-28T08:22:48.825Z,4.97
2017-10-28T08:25:16.358Z,9.63
2017-10-28T08:27:43.892Z,6.13
2017-10-28T08:30:11.427Z,5.67
2017-10-28T08:32:38.952Z,8.80
2017-10-28T08:35:06.621Z,4.70
2017-10-28T08:37:34.170Z,8.50
2017-10-28T08:40:01.701Z,13.20
2017-10-28T08:42:29.237Z,5.30
2017-10-28T08:44:56.780Z,8.77
2017-10-28T08:47:24.792Z,10.27
2017-10-28T08:49:52.320Z,5.37
2017-10-28T08:52:19.844Z,6.17
2017-10-28T08:54:47.908Z,11.07
2017-10-28T08:57:15.443Z,6.80
2017-10-28T08:59:42.972Z,5.30
2017-10-28T09:02:10.509Z,6.60
2017-10-28T09:04:38.051Z,7.17
2017-10-28T09:07:05.640Z,9.70
2017-10-28T09:09:33.169Z,7.53
2017-10-28T09:12:01.094Z,5.07
2017-10-28T09:14:28.667Z,4.50
2017-10-28T09:16:56.196Z,6.30
2017-10-28T09:19:24.336Z,6.30
2017-10-28T09:21:51.867Z,10.00
2017-10-28T09:24:19.440Z,8.70
2017-10-28T09:26:47.011Z,3.60
2017-10-28T09:29:14.700Z,5.20
2017-10-28T09:31:42.315Z,7.20
2017-10-28T09:34:10.006Z,10.53
2017-10-28T09:36:37.536Z,8.63
2017-10-28T09:39:05.104Z,7.80
2017-10-28T09:41:32.662Z,4.07
2017-10-28T09:44:00.205Z,4.70
2017-10-28T09:46:27.934Z,8.63
2017-10-28T09:48:55.580Z,7.00
2017-10-28T09:51:23.148Z,7.30
2017-10-28T09:53:50.717Z,6.40
2017-10-28T09:56:18.301Z,13.40
2017-10-28T09:58:45.934Z,5.33
2017-10-28T10:01:13.471Z,9.57
2017-10-28T10:03:41.057Z,4.20
2017-10-28T10:06:08.599Z,8.53
2017-10-28T10:08:36.128Z,11.20
2017-10-28T10:11:03.720Z,7.70
2017-10-28T10:13:31.288Z,6.93
2017-10-28T10:15:58.815Z,6.67
2017-10-28T10:18:26.409Z,7.70
2017-10-28T10:20:53.963Z,18.83
2017-10-28T10:23:21.496Z,12.30
2017-10-28T10:25:49.026Z,7.33
2017-10-28T10:28:16.556Z,4.20
2017-10-28T10:30:44.090Z,8.27
2017-10-28T10:33:11.629Z,8.30
2017-10-28T10:35:39.204Z,11.00
2017-10-28T10:38:06.749Z,12.03
2017-10-28T10:40:34.277Z,7.53
2017-10-28T10:43:01.813Z,8.00
2017-10-28T10:45:29.354Z,6.87
2017-10-28T10:47:57.036Z,15.90
2017-10-28T10:50:32.844Z,5.87
2017-10-28T10:53:00.439Z,9.07
2017-10-28T10:55:28.018Z,5.93
2017-10-28T10:57:55.555Z,5.27
2017-10-28T11:00:23.603Z,6.10
2017-10-28T11:02:51.142Z,13.40
2017-10-28T11:05:18.742Z,10.77
2017-10-28T11:07:46.331Z,15.87
2017-10-28T11:10:13.863Z,5.87
2017-10-28T11:12:41.399Z,10.60
2017-10-28T11:15:08.934Z,10.93
2017-10-28T11:17:36.479Z,7.80
2017-10-28T11:20:04.013Z,14.80
2017-10-28T11:22:31.553Z,12.73
2017-10-28T11:24:59.090Z,5.80
2017-10-28T11:27:26.627Z,9.17
2017-10-28T11:29:54.168Z,11.40
2017-10-28T11:32:21.728Z,17.23
2017-10-28T11:34:49.270Z,6.90
2017-10-28T11:37:17.457Z,8.10
2017-10-28T11:39:45.557Z,12.03
2017-10-28T11:42:13.097Z,5.30
2017-10-28T11:44:40.630Z,5.80
2017-10-28T11:47:08.160Z,8.33
2017-10-28T11:49:35.816Z,8.23
2017-10-28T11:52:03.345Z,8.27
2017-10-28T11:54:30.877Z,5.53
2017-10-28T11:56:58.456Z,10.37
2017-10-28T11:59:25.997Z,8.50
2017-10-28T12:01:53.535Z,8.80
2017-10-28T12:04:21.072Z,13.63
2017-10-28T12:06:48.614Z,16.97
2017-10-28T12:09:17.187Z,17.53
2017-10-28T12:11:44.745Z,11.20
2017-10-28T12:14:12.278Z,7.57
2017-10-28T12:16:39.839Z,6.43
2017-10-28T12:19:07.507Z,10.60
2017-10-28T12:21:35.085Z,8.17
2017-10-28T12:24:02.621Z,10.00
2017-10-28T12:26:30.154Z,9.80
2017-10-28T12:29:00.908Z,9.13
2017-10-28T12:31:28.492Z,9.03
2017-10-28T12:33:56.071Z,17.33
2017-10-28T12:36:23.605Z,16.73
2017-10-28T12:38:51.144Z,10.83
2017-10-28T12:41:18.715Z,5.50
2017-10-28T12:43:46.249Z,8.50
2017-10-28T12:46:13.788Z,6.93
2017-10-28T12:48:41.334Z,10.17
2017-10-28T12:51:08.879Z,8.00
2017-10-28T12:53:36.461Z,7.83
2017-10-28T12:56:03.998Z,9.37
2017-10-28T12:58:31.662Z,8.23
2017-10-28T13:00:59.202Z,6.13
2017-10-28T13:03:26.748Z,10.53
2017-10-28T13:05:54.355Z,5.93
2017-10-28T13:08:21.981Z,11.10
2017-10-28T13:10:49.511Z,8.27
2017-10-28T13:13:17.560Z,10.27
2017-10-28T13:15:46.716Z,9.13
2017-10-28T13:18:14.468Z,5.43
2017-10-28T13:20:42.058Z,12.00
2017-10-28T13:23:09.595Z,8.67
2017-10-28T13:25:37.124Z,6.60
2017-10-28T13:28:05.548Z,10.07
2017-10-28T13:30:33.082Z,11.90
2017-10-28T13:33:00.667Z,9.53
2017-10-28T13:35:28.206Z,6.50
2017-10-28T13:37:56.402Z,5.73
2017-10-28T13:40:23.989Z,10.30
2017-10-28T13:42:51.528Z,8.60
2017-10-28T13:45:19.066Z,9.60
2017-10-28T13:47:46.597Z,8.67
2017-10-28T13:50:14.125Z,7.30
2017-10-28T13:52:41.702Z,11.70
2017-10-28T13:55:09.676Z,5.47
2017-10-28T13:57:37.223Z,13.00
2017-10-28T14:00:04.755Z,8.70
2017-10-28T14:02:32.290Z,8.40
2017-10-28T14:04:59.833Z,11.83
2017-10-28T14:07:27.376Z,10.20
2017-10-28T14:09:54.946Z,12.43
2017-10-28T14:12:22.495Z,12.60
2017-10-28T14:14:50.097Z,6.40
2017-10-28T14:17:17.625Z,7.27
2017-10-28T14:19:45.165Z,12.83
2017-10-28T14:22:12.704Z,10.43
2017-10-28T14:24:40.236Z,9.70
2017-10-28T14:27:07.772Z,6.77
2017-10-28T14:29:35.314Z,10.40
2017-10-28T14:32:02.897Z,13.53
2017-10-28T14:34:30.432Z,14.03
2017-10-28T14:36:58.408Z,9.43
2017-10-28T14:39:25.946Z,10.50
2017-10-28T14:41:53.483Z,13.43
2017-10-28T14:44:21.160Z,10.60
2017-10-28T14:46:48.689Z,15.17
2017-10-28T14:49:17.198Z,10.20
2017-10-28T14:51:44.737Z,8.03
2017-10-28T14:54:12.274Z,7.40
2017-10-28T14:56:39.807Z,7.73
2017-10-28T14:59:07.343Z,9.13
2017-10-28T15:01:34.913Z,12.03
2017-10-28T15:04:02.453Z,7.77
2017-10-28T15:06:29.984Z,5.20
2017-10-28T15:08:57.522Z,15.77
2017-10-28T15:11:25.089Z,5.17
2017-10-28T15:13:52.630Z,10.23
2017-10-28T15:16:20.164Z,6.33
2017-10-28T15:18:47.714Z,10.80
2017-10-28T15:21:15.236Z,9.97
2017-10-28T15:23:42.778Z,10.80
2017-10-28T15:26:10.317Z,7.53
2017-10-28T15:28:37.858Z,13.00
2017-10-28T15:31:05.398Z,11.70
2017-10-28T15:33:32.960Z,13.10
2017-10-28T15:36:00.521Z,8.63
2017-10-28T15:38:28.061Z,11.87
2017-10-28T15:40:55.641Z,9.40
2017-10-28T15:43:23.190Z,13.17
2017-10-28T15:45:50.728Z,11.70
2017-10-28T15:48:18.264Z,7.03
2017-10-28T15:50:45.953Z,9.00
2017-10-28T15:53:13.892Z,8.20
2017-10-28T15:55:41.599Z,12.80
2017-10-28T15:58:09.187Z,8.10
2017-10-28T16:00:36.727Z,7.90
2017-10-28T16:03:04.266Z,12.03
2017-10-28T16:05:31.800Z,14.17
2017-10-28T16:07:59.375Z,6.90
2017-10-28T16:10:26.913Z,11.30
2017-10-28T16:12:54.445Z,7.57
2017-10-28T16:15:21.990Z,6.07
2017-10-28T16:17:49.525Z,15.03
2017-10-28T16:20:17.493Z,9.40
2017-10-28T16:22:45.028Z,6.70
2017-10-28T16:25:12.593Z,7.23
2017-10-28T16:27:40.122Z,11.33
2017-10-28T16:30:07.712Z,9.53
2017-10-28T16:32:35.292Z,12.83
2017-10-28T16:35:02.824Z,5.07
2017-10-28T16:37:30.404Z,8.40
2017-10-28T16:39:58.487Z,11.13
2017-10-28T16:42:26.021Z,12.70
2017-10-28T16:44:53.585Z,11.50
2017-10-28T16:47:21.156Z,8.97
2017-10-28T16:49:48.720Z,6.90
2017-10-28T16:52:16.256Z,10.77
2017-10-28T16:54:43.789Z,13.50
2017-10-28T16:57:11.328Z,7.73
2017-10-28T16:59:38.900Z,10.60
2017-10-28T17:02:07.386Z,9.50
2017-10-28T17:04:34.977Z,13.10
2017-10-28T17:07:02.525Z,7.43
2017-10-28T17:09:30.059Z,6.30
2017-10-28T17:11:57.592Z,7.33
2017-10-28T17:14:27.433Z,16.83
2017-10-28T17:16:56.686Z,7.93
2017-10-28T17:19:24.301Z,16.60
2017-10-28T17:21:51.957Z,7.93
2017-10-28T17:24:20.192Z,22.70
2017-10-28T17:26:48.919Z,7.83
2017-10-28T17:29:16.613Z,15.03
2017-10-28T17:31:44.201Z,13.67
2017-10-28T17:34:11.733Z,17.10
2017-10-28T17:36:39.290Z,16.00
2017-10-28T17:39:07.777Z,12.00
2017-10-28T17:41:35.312Z,8.47
2017-10-28T17:44:03.768Z,12.83
2017-10-28T17:46:31.345Z,8.93
2017-10-28T17:48:59.704Z,8.70
2017-10-28T17:51:27.713Z,9.83
2017-10-28T17:53:55.249Z,8.73
2017-10-28T17:56:23.665Z,8.43
2017-10-28T17:58:53.580Z,9.13
2017-10-28T18:01:22.320Z,12.30
2017-10-28T18:03:50.696Z,9.87
2017-10-28T18:06:18.973Z,11.23
2017-10-28T18:08:46.741Z,12.17
2017-10-28T18:11:14.777Z,8.43
2017-10-28T18:13:42.308Z,9.00
2017-10-28T18:16:09.839Z,14.33
2017-10-28T18:18:37.380Z,12.90
2017-10-28T18:21:04.916Z,12.60
2017-10-28T18:23:32.445Z,17.30
2017-10-28T18:25:59.977Z,13.33
2017-10-28T18:28:27.531Z,10.97
2017-10-28T18:30:55.071Z,10.13
2017-10-28T18:33:23.542Z,18.40
2017-10-28T18:35:51.070Z,14.10
2017-10-28T18:38:21.710Z,11.30
2017-10-28T18:40:49.250Z,10.30
2017-10-28T18:43:20.487Z,6.90
2017-10-28T18:45:49.102Z,12.97
2017-10-28T18:48:16.630Z,13.97
2017-10-28T18:50:44.169Z,19.07
2017-10-28T18:53:11.706Z,11.50
2017-10-28T18:55:39.239Z,17.93
2017-10-28T18:58:06.775Z,12.67
2017-10-28T19:00:34.340Z,16.80
2017-10-28T19:03:01.873Z,14.47
2017-10-28T19:05:29.445Z,11.00
2017-10-28T19:07:56.998Z,19.63
2017-10-28T19:10:24.533Z,16.40
2017-10-28T19:12:52.067Z,15.33
2017-10-28T19:15:19.632Z,14.37
2017-10-28T19:17:47.716Z,15.43
2017-10-28T19:20:15.265Z,21.17
2017-10-28T19:22:42.857Z,27.97
2017-10-28T19:25:10.401Z,20.83
2017-10-28T19:27:37.946Z,18.73
2017-10-28T19:30:05.493Z,27.37
2017-10-28T19:32:33.963Z,20.47
2017-10-28T19:35:01.501Z,19.23
2017-10-28T19:37:29.050Z,23.50
2017-10-28T19:39:56.590Z,17.50
2017-10-28T19:42:24.700Z,28.40
2017-10-28T19:44:52.275Z,12.73
2017-10-28T19:47:20.318Z,20.80
2017-10-28T19:49:50.241Z,11.97
2017-10-28T19:52:18.946Z,13.80
2017-10-28T19:54:46.484Z,22.10
2017-10-28T19:57:14.032Z,15.60
2017-10-28T19:59:41.570Z,32.50
2017-10-28T20:02:09.105Z,21.73
2017-10-28T20:04:36.688Z,13.90
2017-10-28T20:07:04.241Z,16.23
2017-10-28T20:09:31.825Z,29.90
2017-10-28T20:12:03.439Z,21.53
2017-10-28T20:14:31.092Z,42.03
2017-10-28T20:17:01.115Z,26.97
2017-10-28T20:19:28.661Z,18.57
2017-10-28T20:21:56.259Z,26.63
2017-10-28T20:24:23.845Z,28.83
2017-10-28T20:26:51.383Z,19.60
2017-10-28T20:29:19.224Z,23.63
2017-10-28T20:31:46.812Z,33.00
2017-10-28T20:34:14.340Z,23.87
2017-10-28T20:36:42.811Z,25.73
2017-10-28T20:39:10.374Z,22.53
2017-10-28T20:41:37.946Z,20.60
2017-10-28T20:44:05.479Z,27.43
2017-10-28T20:46:34.244Z,25.87
2017-10-28T20:49:02.543Z,24.70
2017-10-28T20:51:31.194Z,28.63
2017-10-28T20:53:58.728Z,27.13
2017-10-28T20:56:26.261Z,26.17
2017-10-28T20:58:53.797Z,37.97
2017-10-28T21:01:21.337Z,22.97
2017-10-28T21:03:48.880Z,25.10
2017-10-28T21:06:16.411Z,34.33
2017-10-28T21:08:43.947Z,34.47
2017-10-28T21:11:11.531Z,25.43
2017-10-28T21:13:40.495Z,38.07
2017-10-28T21:16:08.484Z,31.87
2017-10-28T21:18:39.765Z,31.47
2017-10-28T21:21:07.308Z,31.30
2017-10-28T21:23:35.580Z,35.07
2017-10-28T21:26:03.118Z,37.23
2017-10-28T21:28:32.451Z,26.30
2017-10-28T21:31:00.104Z,33.07
2017-10-28T21:33:27.632Z,29.77
2017-10-28T21:35:55.168Z,39.03
2017-10-28T21:38:22.803Z,32.93
2017-10-28T21:40:50.336Z,36.20
2017-10-28T21:43:17.903Z,34.00
2017-10-28T21:45:45.497Z,39.13
2017-10-28T21:48:13.434Z,41.30
2017-10-28T21:50:40.990Z,44.53
2017-10-28T21:53:08.524Z,48.57
2017-10-28T21:55:36.622Z,45.27
2017-10-28T21:58:04.157Z,45.10
2017-10-28T22:00:31.688Z,44.27
2017-10-28T22:02:59.250Z,51.83
2017-10-28T22:05:26.833Z,49.47
2017-10-28T22:07:54.362Z,51.80
2017-10-28T22:10:21.907Z,50.13
2017-10-28T22:12:49.436Z,52.73
2017-10-28T22:15:16.966Z,48.23
2017-10-28T22:17:44.492Z,52.23
2017-10-28T22:20:12.025Z,51.43
2017-10-28T22:22:39.569Z,50.20
2017-10-28T22:25:07.130Z,45.57
2017-10-28T22:27:34.760Z,40.87
2017-10-28T22:30:03.134Z,50.50
2017-10-28T22:32:31.209Z,42.83
2017-10-28T22:34:58.740Z,38.77
2017-10-28T22:37:26.282Z,39.40
2017-10-28T22:39:53.848Z,35.87
2017-10-28T22:42:21.385Z,39.63
2017-10-28T22:44:48.970Z,36.40
2017-10-28T22:47:16.504Z,41.83
2017-10-28T22:49:44.125Z,40.03
2017-10-28T22:52:11.681Z,38.97
2017-10-28T22:54:39.226Z,37.40
2017-10-28T22:57:06.769Z,37.90
2017-10-28T22:59:34.301Z,37.73
2017-10-28T23:02:02.469Z,41.10
2017-10-28T23:04:30.007Z,36.33
2017-10-28T23:06:57.531Z,36.23
2017-10-28T23:09:25.065Z,30.60
2017-10-28T23:11:52.589Z,34.73
2017-10-28T23:14:20.142Z,31.20
2017-10-28T23:16:47.685Z,35.70
2017-10-28T23:19:15.258Z,31.47
2017-10-28T23:21:42.800Z,32.63
2017-10-28T23:24:10.368Z,33.03
2017-10-28T23:26:37.913Z,33.23
2017-10-28T23:29:05.464Z,35.27
2017-10-28T23:31:33.002Z,39.13
2017-10-28T23:34:00.545Z,37.30
2017-10-28T23:36:28.081Z,28.10
2017-10-28T23:38:55.619Z,24.87
2017-10-28T23:41:23.152Z,26.70
2017-10-28T23:43:50.701Z,40.90
2017-10-28T23:46:18.324Z,29.80
2017-10-28T23:48:45.891Z,27.83
2017-10-28T23:51:13.421Z,26.80
2017-10-28T23:53:41.401Z,24.90
2017-10-28T23:56:08.934Z,22.20
2017-10-28T23:58:37.125Z,22.13
